sensor_id;sensor_type;location;lat;lon;timestamp;P1;durP1;ratioP1;P2;durP2;ratioP2
27163;SDS011;14685;50.618;7.024;2023-05-02T00:01:19;36.05;;;31.73;;
27163;SDS011;14685;50.618;7.024;2023-05-02T00:03:47;43.63;;;36.95;;
27163;SDS011;14685;50.618;7.024;2023-05-02T00:06:14;40.80;;;34.05;;
27163;SDS011;14685;50.618;7.024;2023-05-02T00:08:41;39.28;;;32.45;;
27163;SDS011;14685;50.618;7.024;2023-05-02T00:11:11;40.72;;;34.92;;
27163;SDS011;14685;50.618;7.024;2023-05-02T00:13:38;41.65;;;34.17;;
27163;SDS011;14685;50.618;7.024;2023-05-02T00:16:05;40.58;;;33.53;;
27163;SDS011;14685;50.618;7.024;2023-05-02T00:18:32;42.55;;;35.10;;
27163;SDS011;14685;50.618;7.024;2023-05-02T00:21:00;46.65;;;37.90;;
27163;SDS011;14685;50.618;7.024;2023-05-02T00:23:27;38.40;;;32.30;;
27163;SDS011;14685;50.618;7.024;2023-05-02T00:25:54;41.60;;;33.05;;
27163;SDS011;14685;50.618;7.024;2023-05-02T00:28:21;45.65;;;36.97;;
27163;SDS011;14685;50.618;7.024;2023-05-02T00:30:48;43.70;;;36.50;;
27163;SDS011;14685;50.618;7.024;2023-05-02T00:33:16;44.28;;;36.42;;
27163;SDS011;14685;50.618;7.024;2023-05-02T00:35:43;43.55;;;36.25;;
27163;SDS011;14685;50.618;7.024;2023-05-02T00:38:11;39.67;;;33.17;;
27163;SDS011;14685;50.618;7.024;2023-05-02T00:40:42;42.67;;;34.40;;
27163;SDS011;14685;50.618;7.024;2023-05-02T00:43:11;44.75;;;35.42;;
27163;SDS011;14685;50.618;7.024;2023-05-02T00:45:38;40.85;;;33.40;;
27163;SDS011;14685;50.618;7.024;2023-05-02T00:48:09;47.15;;;37.75;;
27163;SDS011;14685;50.618;7.024;2023-05-02T00:50:37;44.83;;;35.65;;
27163;SDS011;14685;50.618;7.024;2023-05-02T00:53:08;47.03;;;37.83;;
27163;SDS011;14685;50.618;7.024;2023-05-02T00:55:37;46.92;;;37.25;;
27163;SDS011;14685;50.618;7.024;2023-05-02T00:58:10;46.05;;;36.75;;
27163;SDS011;14685;50.618;7.024;2023-05-02T01:06:35;51.15;;;39.22;;
27163;SDS011;14685;50.618;7.024;2023-05-02T01:12:09;48.33;;;38.47;;
27163;SDS011;14685;50.618;7.024;2023-05-02T01:14:56;43.58;;;34.95;;
27163;SDS011;14685;50.618;7.024;2023-05-02T01:17:25;48.92;;;38.67;;
27163;SDS011;14685;50.618;7.024;2023-05-02T01:19:59;49.53;;;37.88;;
27163;SDS011;14685;50.618;7.024;2023-05-02T01:22:32;48.72;;;37.50;;
27163;SDS011;14685;50.618;7.024;2023-05-02T01:27:45;52.45;;;39.05;;
27163;SDS011;14685;50.618;7.024;2023-05-02T01:30:23;51.13;;;39.30;;
27163;SDS011;14685;50.618;7.024;2023-05-02T01:32:52;47.78;;;36.80;;
27163;SDS011;14685;50.618;7.024;2023-05-02T01:35:23;51.90;;;39.03;;
27163;SDS011;14685;50.618;7.024;2023-05-02T01:37:53;50.13;;;36.35;;
27163;SDS011;14685;50.618;7.024;2023-05-02T01:40:22;48.05;;;36.72;;
27163;SDS011;14685;50.618;7.024;2023-05-02T01:42:51;53.72;;;40.45;;
27163;SDS011;14685;50.618;7.024;2023-05-02T01:45:19;58.85;;;41.25;;
27163;SDS011;14685;50.618;7.024;2023-05-02T01:47:47;54.83;;;41.55;;
27163;SDS011;14685;50.618;7.024;2023-05-02T01:50:16;53.95;;;40.13;;
27163;SDS011;14685;50.618;7.024;2023-05-02T01:52:47;57.88;;;42.38;;
27163;SDS011;14685;50.618;7.024;2023-05-02T01:55:16;53.58;;;39.22;;
27163;SDS011;14685;50.618;7.024;2023-05-02T01:57:45;52.28;;;39.00;;
27163;SDS011;14685;50.618;7.024;2023-05-02T02:00:13;55.00;;;41.05;;
27163;SDS011;14685;50.618;7.024;2023-05-02T02:02:43;54.83;;;39.45;;
27163;SDS011;14685;50.618;7.024;2023-05-02T02:05:11;55.50;;;39.72;;
27163;SDS011;14685;50.618;7.024;2023-05-02T02:07:39;58.70;;;41.97;;
27163;SDS011;14685;50.618;7.024;2023-05-02T02:10:08;55.92;;;40.10;;
27163;SDS011;14685;50.618;7.024;2023-05-02T02:12:39;56.08;;;40.28;;
27163;SDS011;14685;50.618;7.024;2023-05-02T02:17:42;55.03;;;39.42;;
27163;SDS011;14685;50.618;7.024;2023-05-02T02:20:16;60.47;;;42.47;;
27163;SDS011;14685;50.618;7.024;2023-05-02T02:22:47;53.70;;;39.90;;
27163;SDS011;14685;50.618;7.024;2023-05-02T02:25:16;58.03;;;40.92;;
27163;SDS011;14685;50.618;7.024;2023-05-02T02:27:44;57.25;;;40.70;;
27163;SDS011;14685;50.618;7.024;2023-05-02T02:30:13;56.67;;;40.58;;
27163;SDS011;14685;50.618;7.024;2023-05-02T02:32:42;58.30;;;41.58;;
27163;SDS011;14685;50.618;7.024;2023-05-02T02:35:09;57.83;;;40.95;;
27163;SDS011;14685;50.618;7.024;2023-05-02T02:38:01;58.72;;;42.22;;
27163;SDS011;14685;50.618;7.024;2023-05-02T02:40:53;65.70;;;43.83;;
27163;SDS011;14685;50.618;7.024;2023-05-02T02:43:25;57.72;;;40.58;;
27163;SDS011;14685;50.618;7.024;2023-05-02T02:46:06;76.13;;;48.33;;
27163;SDS011;14685;50.618;7.024;2023-05-02T02:51:30;64.15;;;45.28;;
27163;SDS011;14685;50.618;7.024;2023-05-02T02:54:13;67.37;;;47.93;;
27163;SDS011;14685;50.618;7.024;2023-05-02T02:57:00;73.30;;;50.20;;
27163;SDS011;14685;50.618;7.024;2023-05-02T02:59:32;74.78;;;50.28;;
27163;SDS011;14685;50.618;7.024;2023-05-02T03:02:06;75.57;;;49.47;;
27163;SDS011;14685;50.618;7.024;2023-05-02T03:04:35;72.93;;;48.38;;
27163;SDS011;14685;50.618;7.024;2023-05-02T03:07:08;70.82;;;46.42;;
27163;SDS011;14685;50.618;7.024;2023-05-02T03:09:43;75.45;;;48.05;;
27163;SDS011;14685;50.618;7.024;2023-05-02T03:12:12;77.22;;;51.22;;
27163;SDS011;14685;50.618;7.024;2023-05-02T03:14:39;76.40;;;48.00;;
27163;SDS011;14685;50.618;7.024;2023-05-02T03:17:07;67.65;;;44.40;;
27163;SDS011;14685;50.618;7.024;2023-05-02T03:19:34;74.80;;;47.47;;
27163;SDS011;14685;50.618;7.024;2023-05-02T03:22:02;76.75;;;49.78;;
27163;SDS011;14685;50.618;7.024;2023-05-02T03:24:33;82.15;;;51.58;;
27163;SDS011;14685;50.618;7.024;2023-05-02T03:27:00;69.28;;;45.08;;
27163;SDS011;14685;50.618;7.024;2023-05-02T03:29:27;73.03;;;47.38;;
27163;SDS011;14685;50.618;7.024;2023-05-02T03:31:54;74.65;;;47.28;;
27163;SDS011;14685;50.618;7.024;2023-05-02T03:34:21;76.22;;;49.72;;
27163;SDS011;14685;50.618;7.024;2023-05-02T03:36:49;85.97;;;51.25;;
27163;SDS011;14685;50.618;7.024;2023-05-02T03:39:16;86.30;;;52.53;;
27163;SDS011;14685;50.618;7.024;2023-05-02T03:41:43;80.18;;;50.58;;
27163;SDS011;14685;50.618;7.024;2023-05-02T03:44:13;81.55;;;50.00;;
27163;SDS011;14685;50.618;7.024;2023-05-02T03:46:39;72.50;;;45.95;;
27163;SDS011;14685;50.618;7.024;2023-05-02T03:49:06;83.18;;;51.88;;
27163;SDS011;14685;50.618;7.024;2023-05-02T03:51:35;73.40;;;47.20;;
27163;SDS011;14685;50.618;7.024;2023-05-02T03:54:02;75.63;;;47.17;;
27163;SDS011;14685;50.618;7.024;2023-05-02T03:56:29;73.70;;;48.08;;
27163;SDS011;14685;50.618;7.024;2023-05-02T03:58:55;77.70;;;47.83;;
27163;SDS011;14685;50.618;7.024;2023-05-02T04:01:23;78.35;;;48.22;;
27163;SDS011;14685;50.618;7.024;2023-05-02T04:03:51;76.47;;;49.33;;
27163;SDS011;14685;50.618;7.024;2023-05-02T04:06:18;74.63;;;47.05;;
27163;SDS011;14685;50.618;7.024;2023-05-02T04:08:47;74.47;;;46.97;;
27163;SDS011;14685;50.618;7.024;2023-05-02T04:11:14;75.22;;;46.10;;
27163;SDS011;14685;50.618;7.024;2023-05-02T04:13:41;74.43;;;47.25;;
27163;SDS011;14685;50.618;7.024;2023-05-02T04:16:09;71.90;;;46.92;;
27163;SDS011;14685;50.618;7.024;2023-05-02T04:18:36;69.80;;;43.47;;
27163;SDS011;14685;50.618;7.024;2023-05-02T04:21:03;72.10;;;44.83;;
27163;SDS011;14685;50.618;7.024;2023-05-02T04:23:34;71.38;;;44.30;;
27163;SDS011;14685;50.618;7.024;2023-05-02T04:26:02;71.15;;;45.42;;
27163;SDS011;14685;50.618;7.024;2023-05-02T04:28:29;70.85;;;44.28;;
27163;SDS011;14685;50.618;7.024;2023-05-02T04:30:58;67.25;;;42.45;;
27163;SDS011;14685;50.618;7.024;2023-05-02T04:33:29;65.07;;;42.88;;
27163;SDS011;14685;50.618;7.024;2023-05-02T04:35:57;69.80;;;43.92;;
27163;SDS011;14685;50.618;7.024;2023-05-02T04:38:28;66.07;;;42.08;;
27163;SDS011;14685;50.618;7.024;2023-05-02T04:40:55;69.32;;;42.85;;
27163;SDS011;14685;50.618;7.024;2023-05-02T04:43:23;73.50;;;44.20;;
27163;SDS011;14685;50.618;7.024;2023-05-02T04:45:50;72.95;;;44.75;;
27163;SDS011;14685;50.618;7.024;2023-05-02T04:48:17;66.38;;;42.35;;
27163;SDS011;14685;50.618;7.024;2023-05-02T04:50:44;76.22;;;48.15;;
27163;SDS011;14685;50.618;7.024;2023-05-02T04:53:12;76.68;;;46.63;;
27163;SDS011;14685;50.618;7.024;2023-05-02T04:55:39;55.92;;;34.25;;
27163;SDS011;14685;50.618;7.024;2023-05-02T04:58:06;76.22;;;45.33;;
27163;SDS011;14685;50.618;7.024;2023-05-02T05:00:32;82.03;;;50.53;;
27163;SDS011;14685;50.618;7.024;2023-05-02T05:02:59;80.97;;;50.35;;
27163;SDS011;14685;50.618;7.024;2023-05-02T05:05:28;73.90;;;46.15;;
27163;SDS011;14685;50.618;7.024;2023-05-02T05:07:55;79.57;;;47.42;;
27163;SDS011;14685;50.618;7.024;2023-05-02T05:10:25;76.30;;;47.83;;
27163;SDS011;14685;50.618;7.024;2023-05-02T05:12:54;79.53;;;46.92;;
27163;SDS011;14685;50.618;7.024;2023-05-02T05:15:21;74.65;;;44.47;;
27163;SDS011;14685;50.618;7.024;2023-05-02T05:17:50;78.35;;;46.60;;
27163;SDS011;14685;50.618;7.024;2023-05-02T05:20:17;76.68;;;46.50;;
27163;SDS011;14685;50.618;7.024;2023-05-02T05:22:45;72.38;;;44.53;;
27163;SDS011;14685;50.618;7.024;2023-05-02T05:25:13;69.07;;;43.38;;
27163;SDS011;14685;50.618;7.024;2023-05-02T05:27:40;67.38;;;42.10;;
27163;SDS011;14685;50.618;7.024;2023-05-02T05:30:08;73.63;;;44.47;;
27163;SDS011;14685;50.618;7.024;2023-05-02T05:32:38;69.10;;;43.90;;
27163;SDS011;14685;50.618;7.024;2023-05-02T05:35:05;74.75;;;45.38;;
27163;SDS011;14685;50.618;7.024;2023-05-02T05:37:34;68.45;;;43.10;;
27163;SDS011;14685;50.618;7.024;2023-05-02T05:40:05;69.95;;;43.03;;
27163;SDS011;14685;50.618;7.024;2023-05-02T05:42:33;62.88;;;40.47;;
27163;SDS011;14685;50.618;7.024;2023-05-02T05:45:01;66.72;;;41.30;;
27163;SDS011;14685;50.618;7.024;2023-05-02T05:47:28;63.40;;;40.75;;
27163;SDS011;14685;50.618;7.024;2023-05-02T05:49:58;60.55;;;38.38;;
27163;SDS011;14685;50.618;7.024;2023-05-02T05:52:26;57.92;;;37.88;;
27163;SDS011;14685;50.618;7.024;2023-05-02T05:54:54;55.47;;;36.20;;
27163;SDS011;14685;50.618;7.024;2023-05-02T05:57:25;56.45;;;36.25;;
27163;SDS011;14685;50.618;7.024;2023-05-02T05:59:52;54.15;;;34.75;;
27163;SDS011;14685;50.618;7.024;2023-05-02T06:02:19;55.33;;;33.60;;
27163;SDS011;14685;50.618;7.024;2023-05-02T06:04:46;54.33;;;34.55;;
27163;SDS011;14685;50.618;7.024;2023-05-02T06:07:14;52.72;;;32.35;;
27163;SDS011;14685;50.618;7.024;2023-05-02T06:09:41;51.72;;;32.88;;
27163;SDS011;14685;50.618;7.024;2023-05-02T06:12:08;51.28;;;32.50;;
27163;SDS011;14685;50.618;7.024;2023-05-02T06:14:35;49.17;;;32.70;;
27163;SDS011;14685;50.618;7.024;2023-05-02T06:17:02;52.75;;;32.70;;
27163;SDS011;14685;50.618;7.024;2023-05-02T06:19:29;55.03;;;33.00;;
27163;SDS011;14685;50.618;7.024;2023-05-02T06:21:56;50.60;;;32.08;;
27163;SDS011;14685;50.618;7.024;2023-05-02T06:24:23;47.70;;;30.90;;
27163;SDS011;14685;50.618;7.024;2023-05-02T06:26:51;48.60;;;30.52;;
27163;SDS011;14685;50.618;7.024;2023-05-02T06:29:18;50.92;;;31.38;;
27163;SDS011;14685;50.618;7.024;2023-05-02T06:31:44;50.42;;;30.67;;
27163;SDS011;14685;50.618;7.024;2023-05-02T06:34:13;47.80;;;29.90;;
27163;SDS011;14685;50.618;7.024;2023-05-02T06:36:41;41.53;;;27.00;;
27163;SDS011;14685;50.618;7.024;2023-05-02T06:39:07;44.20;;;27.65;;
27163;SDS011;14685;50.618;7.024;2023-05-02T06:41:34;40.92;;;26.98;;
27163;SDS011;14685;50.618;7.024;2023-05-02T06:44:01;39.42;;;25.73;;
27163;SDS011;14685;50.618;7.024;2023-05-02T06:46:28;39.85;;;24.63;;
27163;SDS011;14685;50.618;7.024;2023-05-02T06:48:58;39.72;;;24.02;;
27163;SDS011;14685;50.618;7.024;2023-05-02T06:51:25;38.10;;;24.45;;
27163;SDS011;14685;50.618;7.024;2023-05-02T06:53:53;37.22;;;21.70;;
27163;SDS011;14685;50.618;7.024;2023-05-02T06:56:19;38.47;;;22.65;;
27163;SDS011;14685;50.618;7.024;2023-05-02T06:58:47;36.60;;;22.25;;
27163;SDS011;14685;50.618;7.024;2023-05-02T07:01:14;32.22;;;20.70;;
27163;SDS011;14685;50.618;7.024;2023-05-02T07:03:41;34.10;;;20.65;;
27163;SDS011;14685;50.618;7.024;2023-05-02T07:06:08;33.05;;;20.50;;
27163;SDS011;14685;50.618;7.024;2023-05-02T07:08:35;36.17;;;21.20;;
27163;SDS011;14685;50.618;7.024;2023-05-02T07:11:02;37.65;;;21.83;;
27163;SDS011;14685;50.618;7.024;2023-05-02T07:13:29;35.10;;;21.80;;
27163;SDS011;14685;50.618;7.024;2023-05-02T07:15:56;37.67;;;20.50;;
27163;SDS011;14685;50.618;7.024;2023-05-02T07:18:23;33.17;;;21.45;;
27163;SDS011;14685;50.618;7.024;2023-05-02T07:20:50;33.97;;;21.70;;
27163;SDS011;14685;50.618;7.024;2023-05-02T07:23:17;34.05;;;21.35;;
27163;SDS011;14685;50.618;7.024;2023-05-02T07:25:43;33.38;;;21.73;;
27163;SDS011;14685;50.618;7.024;2023-05-02T07:28:10;40.22;;;22.48;;
27163;SDS011;14685;50.618;7.024;2023-05-02T07:30:38;34.33;;;21.67;;
27163;SDS011;14685;50.618;7.024;2023-05-02T07:33:06;34.30;;;21.35;;
27163;SDS011;14685;50.618;7.024;2023-05-02T07:35:34;40.25;;;21.95;;
27163;SDS011;14685;50.618;7.024;2023-05-02T07:38:02;32.92;;;20.83;;
27163;SDS011;14685;50.618;7.024;2023-05-02T07:40:28;30.60;;;19.20;;
27163;SDS011;14685;50.618;7.024;2023-05-02T07:42:56;29.63;;;18.17;;
27163;SDS011;14685;50.618;7.024;2023-05-02T07:45:26;28.23;;;17.17;;
27163;SDS011;14685;50.618;7.024;2023-05-02T07:47:53;25.55;;;16.75;;
27163;SDS011;14685;50.618;7.024;2023-05-02T07:50:22;26.90;;;16.40;;
27163;SDS011;14685;50.618;7.024;2023-05-02T07:52:49;27.63;;;16.75;;
27163;SDS011;14685;50.618;7.024;2023-05-02T07:55:17;24.10;;;15.70;;
27163;SDS011;14685;50.618;7.024;2023-05-02T07:57:44;23.23;;;16.17;;
27163;SDS011;14685;50.618;7.024;2023-05-02T08:00:11;20.52;;;14.18;;
27163;SDS011;14685;50.618;7.024;2023-05-02T08:02:40;24.98;;;15.93;;
27163;SDS011;14685;50.618;7.024;2023-05-02T08:05:08;20.20;;;14.23;;
27163;SDS011;14685;50.618;7.024;2023-05-02T08:07:35;19.15;;;13.10;;
27163;SDS011;14685;50.618;7.024;2023-05-02T08:10:03;19.52;;;13.38;;
27163;SDS011;14685;50.618;7.024;2023-05-02T08:12:31;22.17;;;13.80;;
27163;SDS011;14685;50.618;7.024;2023-05-02T08:14:58;20.00;;;13.18;;
27163;SDS011;14685;50.618;7.024;2023-05-02T08:17:25;18.27;;;12.68;;
27163;SDS011;14685;50.618;7.024;2023-05-02T08:19:54;19.33;;;14.45;;
27163;SDS011;14685;50.618;7.024;2023-05-02T08:22:23;19.27;;;13.60;;
27163;SDS011;14685;50.618;7.024;2023-05-02T08:24:50;17.10;;;11.73;;
27163;SDS011;14685;50.618;7.024;2023-05-02T08:27:16;21.05;;;14.00;;
27163;SDS011;14685;50.618;7.024;2023-05-02T08:29:45;20.95;;;12.38;;
27163;SDS011;14685;50.618;7.024;2023-05-02T08:32:12;15.90;;;11.95;;
27163;SDS011;14685;50.618;7.024;2023-05-02T08:34:39;19.45;;;12.27;;
27163;SDS011;14685;50.618;7.024;2023-05-02T08:37:07;19.08;;;12.52;;
27163;SDS011;14685;50.618;7.024;2023-05-02T08:39:34;18.10;;;11.82;;
27163;SDS011;14685;50.618;7.024;2023-05-02T08:42:05;16.65;;;10.80;;
27163;SDS011;14685;50.618;7.024;2023-05-02T08:44:32;18.13;;;12.40;;
27163;SDS011;14685;50.618;7.024;2023-05-02T08:47:00;16.65;;;11.15;;
27163;SDS011;14685;50.618;7.024;2023-05-02T08:49:28;16.38;;;11.73;;
27163;SDS011;14685;50.618;7.024;2023-05-02T08:51:58;14.25;;;10.45;;
27163;SDS011;14685;50.618;7.024;2023-05-02T08:54:25;18.50;;;11.27;;
27163;SDS011;14685;50.618;7.024;2023-05-02T08:56:52;17.65;;;11.02;;
27163;SDS011;14685;50.618;7.024;2023-05-02T08:59:21;14.20;;;10.82;;
27163;SDS011;14685;50.618;7.024;2023-05-02T09:01:48;14.55;;;10.85;;
27163;SDS011;14685;50.618;7.024;2023-05-02T09:04:22;14.57;;;11.15;;
27163;SDS011;14685;50.618;7.024;2023-05-02T09:06:53;15.60;;;10.98;;
27163;SDS011;14685;50.618;7.024;2023-05-02T09:09:20;17.15;;;11.15;;
27163;SDS011;14685;50.618;7.024;2023-05-02T09:11:47;18.83;;;13.15;;
27163;SDS011;14685;50.618;7.024;2023-05-02T09:14:16;21.38;;;14.57;;
27163;SDS011;14685;50.618;7.024;2023-05-02T09:16:43;22.67;;;16.60;;
27163;SDS011;14685;50.618;7.024;2023-05-02T09:19:10;22.85;;;17.05;;
27163;SDS011;14685;50.618;7.024;2023-05-02T09:21:50;25.17;;;16.63;;
27163;SDS011;14685;50.618;7.024;2023-05-02T09:24:24;22.77;;;17.02;;
27163;SDS011;14685;50.618;7.024;2023-05-02T09:26:58;27.35;;;16.90;;
27163;SDS011;14685;50.618;7.024;2023-05-02T09:29:30;23.08;;;16.42;;
27163;SDS011;14685;50.618;7.024;2023-05-02T09:32:06;21.88;;;15.88;;
27163;SDS011;14685;50.618;7.024;2023-05-02T09:34:33;22.27;;;14.32;;
27163;SDS011;14685;50.618;7.024;2023-05-02T09:37:03;20.75;;;13.77;;
27163;SDS011;14685;50.618;7.024;2023-05-02T09:39:31;17.85;;;11.63;;
27163;SDS011;14685;50.618;7.024;2023-05-02T09:41:58;13.15;;;10.27;;
27163;SDS011;14685;50.618;7.024;2023-05-02T09:44:34;12.80;;;10.02;;
27163;SDS011;14685;50.618;7.024;2023-05-02T09:47:03;12.80;;;9.00;;
27163;SDS011;14685;50.618;7.024;2023-05-02T09:49:42;15.88;;;9.25;;
27163;SDS011;14685;50.618;7.024;2023-05-02T09:52:12;12.23;;;7.82;;
27163;SDS011;14685;50.618;7.024;2023-05-02T09:54:40;8.77;;;7.50;;
27163;SDS011;14685;50.618;7.024;2023-05-02T09:57:07;10.40;;;7.20;;
27163;SDS011;14685;50.618;7.024;2023-05-02T09:59:37;8.95;;;7.05;;
27163;SDS011;14685;50.618;7.024;2023-05-02T10:02:05;11.75;;;7.03;;
27163;SDS011;14685;50.618;7.024;2023-05-02T10:04:34;8.63;;;6.80;;
27163;SDS011;14685;50.618;7.024;2023-05-02T10:07:02;10.38;;;6.25;;
27163;SDS011;14685;50.618;7.024;2023-05-02T10:09:31;6.97;;;4.50;;
27163;SDS011;14685;50.618;7.024;2023-05-02T10:12:02;5.55;;;4.00;;
27163;SDS011;14685;50.618;7.024;2023-05-02T10:14:40;5.50;;;3.47;;
27163;SDS011;14685;50.618;7.024;2023-05-02T10:17:21;5.85;;;3.30;;
27163;SDS011;14685;50.618;7.024;2023-05-02T10:19:58;5.82;;;3.60;;
27163;SDS011;14685;50.618;7.024;2023-05-02T10:22:29;8.05;;;3.50;;
27163;SDS011;14685;50.618;7.024;2023-05-02T10:24:57;5.93;;;3.55;;
27163;SDS011;14685;50.618;7.024;2023-05-02T10:27:28;4.32;;;3.20;;
27163;SDS011;14685;50.618;7.024;2023-05-02T10:29:57;5.55;;;3.08;;
27163;SDS011;14685;50.618;7.024;2023-05-02T10:32:27;7.93;;;4.40;;
27163;SDS011;14685;50.618;7.024;2023-05-02T10:35:01;7.50;;;4.13;;
27163;SDS011;14685;50.618;7.024;2023-05-02T10:37:29;6.15;;;3.60;;
27163;SDS011;14685;50.618;7.024;2023-05-02T10:40:01;6.60;;;3.05;;
27163;SDS011;14685;50.618;7.024;2023-05-02T10:42:29;7.05;;;2.78;;
27163;SDS011;14685;50.618;7.024;2023-05-02T10:44:57;5.60;;;3.13;;
27163;SDS011;14685;50.618;7.024;2023-05-02T10:47:25;5.35;;;2.35;;
27163;SDS011;14685;50.618;7.024;2023-05-02T10:49:54;4.00;;;2.35;;
27163;SDS011;14685;50.618;7.024;2023-05-02T10:52:25;6.53;;;2.85;;
27163;SDS011;14685;50.618;7.024;2023-05-02T10:55:15;6.00;;;2.65;;
27163;SDS011;14685;50.618;7.024;2023-05-02T11:00:32;14.52;;;7.05;;
27163;SDS011;14685;50.618;7.024;2023-05-02T11:03:00;15.10;;;7.40;;
27163;SDS011;14685;50.618;7.024;2023-05-02T11:05:28;11.48;;;7.10;;
27163;SDS011;14685;50.618;7.024;2023-05-02T11:10:40;11.30;;;7.70;;
27163;SDS011;14685;50.618;7.024;2023-05-02T11:13:08;9.88;;;5.80;;
27163;SDS011;14685;50.618;7.024;2023-05-02T11:18:08;10.85;;;5.65;;
27163;SDS011;14685;50.618;7.024;2023-05-02T11:20:43;11.93;;;5.45;;
27163;SDS011;14685;50.618;7.024;2023-05-02T11:25:47;8.20;;;5.50;;
27163;SDS011;14685;50.618;7.024;2023-05-02T11:31:02;12.50;;;6.20;;
27163;SDS011;14685;50.618;7.024;2023-05-02T11:33:59;10.43;;;6.00;;
27163;SDS011;14685;50.618;7.024;2023-05-02T11:36:32;12.07;;;6.60;;
27163;SDS011;14685;50.618;7.024;2023-05-02T11:39:00;12.27;;;7.00;;
27163;SDS011;14685;50.618;7.024;2023-05-02T11:41:38;10.95;;;5.72;;
27163;SDS011;14685;50.618;7.024;2023-05-02T11:44:08;12.85;;;5.30;;
27163;SDS011;14685;50.618;7.024;2023-05-02T11:46:36;11.65;;;5.25;;
27163;SDS011;14685;50.618;7.024;2023-05-02T11:49:06;11.25;;;5.68;;
27163;SDS011;14685;50.618;7.024;2023-05-02T11:51:36;9.70;;;5.03;;
27163;SDS011;14685;50.618;7.024;2023-05-02T11:54:03;6.72;;;5.32;;
27163;SDS011;14685;50.618;7.024;2023-05-02T11:56:34;12.95;;;5.07;;
27163;SDS011;14685;50.618;7.024;2023-05-02T11:59:01;10.45;;;4.82;;
27163;SDS011;14685;50.618;7.024;2023-05-02T12:01:29;11.70;;;5.30;;
27163;SDS011;14685;50.618;7.024;2023-05-02T12:04:06;7.80;;;4.30;;
27163;SDS011;14685;50.618;7.024;2023-05-02T12:06:33;6.70;;;3.55;;
27163;SDS011;14685;50.618;7.024;2023-05-02T12:09:13;8.02;;;3.90;;
27163;SDS011;14685;50.618;7.024;2023-05-02T12:11:45;9.85;;;4.45;;
27163;SDS011;14685;50.618;7.024;2023-05-02T12:14:25;10.67;;;4.53;;
27163;SDS011;14685;50.618;7.024;2023-05-02T12:16:56;8.88;;;5.35;;
27163;SDS011;14685;50.618;7.024;2023-05-02T12:19:26;13.20;;;9.82;;
27163;SDS011;14685;50.618;7.024;2023-05-02T12:21:53;15.65;;;10.38;;
27163;SDS011;14685;50.618;7.024;2023-05-02T12:24:20;12.07;;;9.98;;
27163;SDS011;14685;50.618;7.024;2023-05-02T12:26:48;11.68;;;9.00;;
27163;SDS011;14685;50.618;7.024;2023-05-02T12:29:18;15.35;;;10.45;;
27163;SDS011;14685;50.618;7.024;2023-05-02T12:31:50;13.85;;;9.93;;
27163;SDS011;14685;50.618;7.024;2023-05-02T12:34:31;15.45;;;10.43;;
27163;SDS011;14685;50.618;7.024;2023-05-02T12:36:58;15.75;;;9.40;;
27163;SDS011;14685;50.618;7.024;2023-05-02T12:39:39;13.55;;;9.57;;
27163;SDS011;14685;50.618;7.024;2023-05-02T12:42:11;13.98;;;9.35;;
27163;SDS011;14685;50.618;7.024;2023-05-02T12:44:40;12.68;;;8.88;;
27163;SDS011;14685;50.618;7.024;2023-05-02T12:47:09;13.45;;;10.07;;
27163;SDS011;14685;50.618;7.024;2023-05-02T12:49:50;18.02;;;10.50;;
27163;SDS011;14685;50.618;7.024;2023-05-02T12:55:16;13.13;;;9.95;;
27163;SDS011;14685;50.618;7.024;2023-05-02T12:57:43;12.43;;;9.05;;
27163;SDS011;14685;50.618;7.024;2023-05-02T13:00:10;13.63;;;10.57;;
27163;SDS011;14685;50.618;7.024;2023-05-02T13:02:37;14.68;;;11.73;;
27163;SDS011;14685;50.618;7.024;2023-05-02T13:05:12;18.70;;;11.75;;
27163;SDS011;14685;50.618;7.024;2023-05-02T13:07:41;17.27;;;14.43;;
27163;SDS011;14685;50.618;7.024;2023-05-02T13:10:09;21.20;;;14.02;;
27163;SDS011;14685;50.618;7.024;2023-05-02T13:12:38;25.08;;;17.92;;
27163;SDS011;14685;50.618;7.024;2023-05-02T13:15:06;22.33;;;18.65;;
27163;SDS011;14685;50.618;7.024;2023-05-02T13:17:34;22.77;;;17.08;;
27163;SDS011;14685;50.618;7.024;2023-05-02T13:20:01;19.00;;;15.32;;
27163;SDS011;14685;50.618;7.024;2023-05-02T13:22:29;20.88;;;15.00;;
27163;SDS011;14685;50.618;7.024;2023-05-02T13:24:57;22.65;;;13.35;;
27163;SDS011;14685;50.618;7.024;2023-05-02T13:27:25;18.30;;;13.07;;
27163;SDS011;14685;50.618;7.024;2023-05-02T13:29:59;12.23;;;8.70;;
27163;SDS011;14685;50.618;7.024;2023-05-02T13:32:33;14.90;;;8.90;;
27163;SDS011;14685;50.618;7.024;2023-05-02T13:35:01;10.25;;;8.27;;
27163;SDS011;14685;50.618;7.024;2023-05-02T13:37:28;12.88;;;7.28;;
27163;SDS011;14685;50.618;7.024;2023-05-02T13:39:55;9.68;;;6.32;;
27163;SDS011;14685;50.618;7.024;2023-05-02T13:42:23;9.02;;;6.55;;
27163;SDS011;14685;50.618;7.024;2023-05-02T13:44:52;11.50;;;6.60;;
27163;SDS011;14685;50.618;7.024;2023-05-02T13:47:20;8.70;;;5.80;;
27163;SDS011;14685;50.618;7.024;2023-05-02T13:49:50;11.27;;;4.82;;
27163;SDS011;14685;50.618;7.024;2023-05-02T13:52:17;11.27;;;5.13;;
27163;SDS011;14685;50.618;7.024;2023-05-02T13:54:45;7.25;;;4.85;;
27163;SDS011;14685;50.618;7.024;2023-05-02T13:57:11;10.70;;;5.68;;
27163;SDS011;14685;50.618;7.024;2023-05-02T13:59:40;12.77;;;5.30;;
27163;SDS011;14685;50.618;7.024;2023-05-02T14:02:07;11.90;;;5.22;;
27163;SDS011;14685;50.618;7.024;2023-05-02T14:04:36;13.02;;;5.00;;
27163;SDS011;14685;50.618;7.024;2023-05-02T14:07:03;8.50;;;4.95;;
27163;SDS011;14685;50.618;7.024;2023-05-02T14:09:32;9.40;;;5.07;;
27163;SDS011;14685;50.618;7.024;2023-05-02T14:12:02;10.27;;;4.63;;
27163;SDS011;14685;50.618;7.024;2023-05-02T14:14:30;11.20;;;4.72;;
27163;SDS011;14685;50.618;7.024;2023-05-02T14:16:57;10.43;;;5.28;;
27163;SDS011;14685;50.618;7.024;2023-05-02T14:19:25;16.35;;;7.15;;
27163;SDS011;14685;50.618;7.024;2023-05-02T14:21:52;12.82;;;7.35;;
27163;SDS011;14685;50.618;7.024;2023-05-02T14:24:18;10.98;;;7.30;;
27163;SDS011;14685;50.618;7.024;2023-05-02T14:26:46;14.73;;;8.25;;
27163;SDS011;14685;50.618;7.024;2023-05-02T14:29:14;10.77;;;6.88;;
27163;SDS011;14685;50.618;7.024;2023-05-02T14:31:45;14.38;;;7.10;;
27163;SDS011;14685;50.618;7.024;2023-05-02T14:34:14;11.93;;;6.93;;
27163;SDS011;14685;50.618;7.024;2023-05-02T14:36:42;10.77;;;6.57;;
27163;SDS011;14685;50.618;7.024;2023-05-02T14:39:09;9.00;;;5.07;;
27163;SDS011;14685;50.618;7.024;2023-05-02T14:41:37;7.85;;;5.18;;
27163;SDS011;14685;50.618;7.024;2023-05-02T14:44:04;8.93;;;5.03;;
27163;SDS011;14685;50.618;7.024;2023-05-02T14:46:31;13.68;;;5.30;;
27163;SDS011;14685;50.618;7.024;2023-05-02T14:48:59;9.57;;;4.75;;
27163;SDS011;14685;50.618;7.024;2023-05-02T14:51:26;10.20;;;5.72;;
27163;SDS011;14685;50.618;7.024;2023-05-02T14:53:55;8.40;;;4.95;;
27163;SDS011;14685;50.618;7.024;2023-05-02T14:56:25;10.48;;;5.35;;
27163;SDS011;14685;50.618;7.024;2023-05-02T14:58:53;9.63;;;4.78;;
27163;SDS011;14685;50.618;7.024;2023-05-02T15:01:20;10.40;;;4.93;;
27163;SDS011;14685;50.618;7.024;2023-05-02T15:03:49;12.75;;;6.15;;
27163;SDS011;14685;50.618;7.024;2023-05-02T15:06:32;10.52;;;5.57;;
27163;SDS011;14685;50.618;7.024;2023-05-02T15:09:01;12.35;;;5.10;;
27163;SDS011;14685;50.618;7.024;2023-05-02T15:11:30;11.57;;;4.78;;